Time;durP1;ratioP1;P1;durP2;ratioP2;P2;SDS_P1;SDS_P2;PMS_P1;PMS_P2;Temp;Humidity;BMP_temperature;BMP_pressure;BME280_temperature;BME280_humidity;BME280_pressure;Samples;Min_cycle;Max_cycle;Signal;HPM_P1;HPM_P2
2021/08/24 00:00:28;;;;;;;3.80;2.50;;;19.40;23.40;;;;;;5066730;28;21291;-80
2021/08/24 00:02:58;;;;;;;3.10;2.63;;;19.40;1.00;;;;;;5080217;28;21792;-81
2021/08/24 00:05:32;;;;;;;3.93;2.50;;;19.40;1.00;;;;;;5078473;28;20483;-81
2021/08/24 00:08:01;;;;;;;2.50;2.20;;;19.40;1.00;;;;;;5072021;28;20451;-82
2021/08/24 00:10:32;;;;;;;3.40;2.83;;;19.40;1.00;;;;;;5072808;28;20454;-81
2021/08/24 00:13:00;;;;;;;2.70;2.50;;;19.40;99.90;;;;;;5073772;28;20459;-82
2021/08/24 00:15:31;;;;;;;2.53;2.33;;;19.40;99.90;;;;;;5074946;28;20542;-80
2021/08/24 00:18:00;;;;;;;3.07;2.87;;;19.40;72.50;;;;;;5063302;28;20439;-83
2021/08/24 00:20:31;;;;;;;2.60;2.40;;;19.40;97.50;;;;;;5072248;28;20431;-80
2021/08/24 00:23:01;;;;;;;2.93;2.20;;;19.40;9.90;;;;;;5086886;28;20531;-80
2021/08/24 00:25:30;;;;;;;2.47;2.27;;;19.40;62.00;;;;;;5078130;28;21006;-78
2021/08/24 00:27:58;;;;;;;3.37;3.07;;;19.40;65.50;;;;;;5080524;28;20457;-81
2021/08/24 00:30:27;;;;;;;2.97;2.77;;;19.40;1.00;;;;;;5077004;28;20458;-81
2021/08/24 00:32:57;;;;;;;4.20;2.60;;;19.30;1.00;;;;;;5071720;28;20457;-81
2021/08/24 00:35:25;;;;;;;3.77;3.40;;;19.30;74.00;;;;;;5071767;28;20458;-81
2021/08/24 00:37:55;;;;;;;2.67;2.47;;;19.30;91.50;;;;;;5071715;28;20452;-79
2021/08/24 00:40:24;;;;;;;3.50;3.20;;;19.30;24.60;;;;;;5065217;28;20736;-79
2021/08/24 00:42:53;;;;;;;3.57;2.30;;;19.30;1.00;;;;;;5071066;28;20474;-81
2021/08/24 00:45:21;;;;;;;4.60;2.30;;;19.20;1.00;;;;;;5081967;28;20450;-81
2021/08/24 00:47:51;;;;;;;2.43;2.23;;;19.20;45.50;;;;;;5079854;28;20443;-82
2021/08/24 00:50:27;;;;;;;2.10;2.00;;;19.20;14.10;;;;;;5072523;28;20463;-80
2021/08/24 00:52:57;;;;;;;3.13;2.83;;;19.20;43.00;;;;;;5086114;28;20494;-81
2021/08/24 00:55:25;;;;;;;3.50;2.40;;;19.30;50.60;;;;;;5074483;28;20593;-80
2021/08/24 00:57:59;;;;;;;2.80;2.60;;;19.30;64.40;;;;;;5071878;28;20464;-80
2021/08/24 01:00:28;;;;;;;2.40;2.20;;;19.30;71.20;;;;;;5070200;28;20465;-77
2021/08/24 01:03:00;;;;;;;3.20;2.80;;;19.20;25.90;;;;;;5081725;28;20470;-77
2021/08/24 01:05:32;;;;;;;3.00;2.57;;;19.20;14.60;;;;;;5079560;28;20446;-75
2021/08/24 01:08:08;;;;;;;4.97;2.90;;;19.20;36.40;;;;;;5060041;28;20458;-78
2021/08/24 01:10:42;;;;;;;3.47;2.63;;;19.20;99.90;;;;;;5058729;28;20433;-78
2021/08/24 01:13:20;;;;;;;3.30;2.60;;;19.20;99.90;;;;;;5083246;28;20473;-77
2021/08/24 01:15:56;;;;;;;3.63;2.73;;;19.20;99.90;;;;;;5070915;28;20450;-77
2021/08/24 01:18:32;;;;;;;3.73;2.13;;;19.20;99.90;;;;;;5052553;28;20447;-77
2021/08/24 01:21:27;;;;;;;3.10;2.43;;;19.20;99.90;;;;;;5077700;28;20446;-77
2021/08/24 01:24:01;;;;;;;3.10;2.47;;;19.20;99.90;;;;;;5073100;28;20493;-77
2021/08/24 01:26:39;;;;;;;2.77;2.57;;;19.20;99.90;;;;;;5069158;28;20458;-77
2021/08/24 01:29:59;;;;;;;3.40;2.73;;;19.10;99.90;;;;;;5064615;28;21049;-77
2021/08/24 01:32:55;;;;;;;2.87;2.57;;;19.10;99.90;;;;;;5042904;28;20470;-77
2021/08/24 01:36:00;;;;;;;4.33;3.93;;;19.10;99.90;;;;;;5075164;28;20911;-77
2021/08/24 01:38:31;;;;;;;5.87;4.30;;;19.10;99.90;;;;;;5072302;28;21124;-78
2021/08/24 01:41:07;;;;;;;3.00;2.70;;;19.00;99.90;;;;;;5064436;28;20447;-77
2021/08/24 01:43:40;;;;;;;3.37;3.10;;;19.10;65.80;;;;;;5064120;28;20485;-78
2021/08/24 01:46:19;;;;;;;2.83;2.30;;;19.10;1.00;;;;;;5071422;28;20883;-78
2021/08/24 01:48:52;;;;;;;3.17;2.90;;;19.00;1.00;;;;;;5074247;28;20466;-75
2021/08/24 01:51:23;;;;;;;3.70;3.20;;;19.00;1.00;;;;;;5069740;28;20454;-78
2021/08/24 01:53:57;;;;;;;3.50;3.00;;;19.00;1.00;;;;;;5050698;28;20489;-78
2021/08/24 01:56:30;;;;;;;4.80;2.83;;;18.90;1.00;;;;;;5079283;28;20484;-79
2021/08/24 01:59:04;;;;;;;3.23;2.70;;;19.00;1.00;;;;;;5072265;28;20503;-79
2021/08/24 02:01:35;;;;;;;2.57;2.37;;;19.00;1.00;;;;;;5080465;28;20526;-79
2021/08/24 02:04:12;;;;;;;3.10;2.80;;;18.90;1.00;;;;;;5065828;28;20497;-79
2021/08/24 02:06:43;;;;;;;3.10;2.80;;;18.90;1.00;;;;;;5067198;28;20506;-78
2021/08/24 02:09:18;;;;;;;4.07;3.13;;;18.90;1.00;;;;;;5072670;28;20899;-77
2021/08/24 02:11:48;;;;;;;2.50;2.30;;;18.80;1.00;;;;;;5077260;28;20460;-78
2021/08/24 02:14:17;;;;;;;3.37;2.90;;;18.80;1.00;;;;;;5074506;28;20830;-79
2021/08/24 02:16:49;;;;;;;3.50;3.20;;;18.80;1.00;;;;;;5088458;28;20504;-79
2021/08/24 02:19:22;;;;;;;3.60;2.50;;;18.80;99.90;;;;;;5076588;28;20460;-76
2021/08/24 02:21:54;;;;;;;2.47;2.27;;;18.80;99.90;;;;;;5074949;28;20437;-77
2021/08/24 02:24:29;;;;;;;3.07;2.70;;;18.70;99.90;;;;;;5086369;28;20973;-78
2021/08/24 02:26:58;;;;;;;2.73;2.50;;;18.70;99.90;;;;;;5074744;28;20541;-78
2021/08/24 02:29:26;;;;;;;3.00;2.40;;;18.70;99.90;;;;;;5063087;28;20474;-79
2021/08/24 02:32:00;;;;;;;2.60;2.40;;;18.70;99.90;;;;;;5065130;28;20442;-78
2021/08/24 02:34:32;;;;;;;2.33;2.13;;;18.60;99.90;;;;;;5074023;28;20461;-78
2021/08/24 02:37:09;;;;;;;2.43;2.23;;;18.60;99.90;;;;;;5053676;28;20445;-78
2021/08/24 02:39:54;;;;;;;4.60;2.27;;;18.50;99.90;;;;;;5071910;28;20515;-79
2021/08/24 02:42:29;;;;;;;3.93;2.90;;;18.50;99.90;;;;;;5073774;28;20518;-78
2021/08/24 02:45:03;;;;;;;2.83;2.40;;;18.50;99.90;;;;;;5072535;28;20493;-79
2021/08/24 02:47:32;;;;;;;3.00;2.03;;;18.60;99.90;;;;;;5072914;28;21041;-80
2021/08/24 02:50:02;;;;;;;3.57;2.17;;;18.50;99.90;;;;;;5070138;28;21066;-79
2021/08/24 02:52:33;;;;;;;5.53;2.17;;;18.50;99.90;;;;;;5084160;28;20453;-79
2021/08/24 02:55:03;;;;;;;2.43;2.00;;;18.50;1.00;;;;;;5077893;28;20556;-78
2021/08/24 02:57:31;;;;;;;4.77;2.20;;;18.50;99.90;;;;;;5079020;28;20457;-79
2021/08/24 02:59:59;;;;;;;2.80;2.17;;;18.50;99.90;;;;;;5070362;28;20454;-78
2021/08/24 03:02:27;;;;;;;1.97;1.77;;;18.40;99.90;;;;;;5071367;28;20489;-79
2021/08/24 03:04:56;;;;;;;3.50;3.20;;;18.50;99.90;;;;;;5078658;28;20492;-78
2021/08/24 03:07:27;;;;;;;3.23;2.53;;;18.40;99.90;;;;;;5056248;28;20969;-78
2021/08/24 03:09:58;;;;;;;6.67;4.47;;;18.40;99.90;;;;;;5079620;28;20461;-79
2021/08/24 03:12:38;;;;;;;12.67;3.70;;;18.40;99.90;;;;;;5073815;28;20563;-78
2021/08/24 03:15:15;;;;;;;2.60;2.30;;;18.40;99.90;;;;;;5073769;28;20454;-77
2021/08/24 03:17:48;;;;;;;3.40;2.20;;;18.40;99.90;;;;;;5056464;28;20457;-79
2021/08/24 03:20:19;;;;;;;2.50;2.30;;;18.40;99.90;;;;;;5080988;28;20490;-78
2021/08/24 03:22:49;;;;;;;2.63;2.00;;;18.30;99.90;;;;;;5088990;28;20515;-78
2021/08/24 03:25:18;;;;;;;2.30;2.20;;;18.30;99.90;;;;;;5071223;28;20516;-78
2021/08/24 03:27:51;;;;;;;3.63;2.23;;;18.20;99.90;;;;;;5085696;28;20950;-77
2021/08/24 03:30:23;;;;;;;4.60;3.13;;;18.20;99.90;;;;;;5071285;28;20460;-77
2021/08/24 03:32:52;;;;;;;2.40;2.20;;;18.20;99.90;;;;;;5053386;28;20457;-78
2021/08/24 03:35:22;;;;;;;1.73;1.40;;;18.10;99.90;;;;;;5065309;28;20507;-78
2021/08/24 03:37:51;;;;;;;3.53;2.30;;;18.10;99.90;;;;;;5072736;28;20457;-79
2021/08/24 03:40:19;;;;;;;2.10;1.90;;;18.10;98.90;;;;;;5069762;28;20455;-80
2021/08/24 03:42:49;;;;;;;3.97;2.30;;;18.10;93.40;;;;;;5071348;28;20453;-78
2021/08/24 03:45:17;;;;;;;2.63;1.93;;;18.10;61.90;;;;;;5053814;28;20462;-79
2021/08/24 03:47:45;;;;;;;1.93;1.83;;;18.00;62.00;;;;;;5090392;28;20505;-79
2021/08/24 03:50:13;;;;;;;2.43;2.23;;;18.00;46.50;;;;;;5077522;28;20508;-78
2021/08/24 03:52:42;;;;;;;3.37;2.40;;;18.00;34.10;;;;;;5070583;28;20449;-79
2021/08/24 03:55:11;;;;;;;2.40;1.70;;;17.90;22.40;;;;;;5071615;28;21122;-79
2021/08/24 03:57:39;;;;;;;3.50;1.93;;;17.90;15.30;;;;;;5070096;28;20454;-78
2021/08/24 04:00:09;;;;;;;2.40;2.20;;;17.90;17.20;;;;;;5053944;28;20865;-79
2021/08/24 04:02:38;;;;;;;2.60;1.97;;;17.80;19.60;;;;;;5070767;28;20453;-78
2021/08/24 04:05:07;;;;;;;2.20;1.93;;;17.80;16.60;;;;;;5074747;28;20524;-77
2021/08/24 04:07:35;;;;;;;2.13;1.93;;;17.80;7.00;;;;;;5069551;28;20531;-78
2021/08/24 04:10:05;;;;;;;3.00;2.70;;;17.80;7.00;;;;;;5078334;28;20460;-78
2021/08/24 04:12:33;;;;;;;2.23;2.03;;;17.80;1.00;;;;;;5080066;28;20456;-77
2021/08/24 04:15:02;;;;;;;2.83;1.93;;;17.70;1.00;;;;;;5083404;28;20477;-78
2021/08/24 04:17:33;;;;;;;2.80;1.90;;;17.70;1.00;;;;;;5075346;28;20865;-78
2021/08/24 04:20:01;;;;;;;3.60;2.47;;;17.70;1.00;;;;;;5088231;28;20456;-78
2021/08/24 04:22:29;;;;;;;2.23;1.83;;;17.60;1.00;;;;;;5075656;28;20464;-76
2021/08/24 04:24:57;;;;;;;2.80;2.50;;;17.60;1.00;;;;;;5074424;28;21231;-78
2021/08/24 04:27:25;;;;;;;4.30;2.90;;;17.60;1.00;;;;;;5072737;28;20549;-78
2021/08/24 04:29:53;;;;;;;5.30;2.60;;;17.50;1.00;;;;;;5071574;28;20456;-77
2021/08/24 04:32:25;;;;;;;3.20;2.63;;;17.50;1.00;;;;;;5073249;28;20449;-78
2021/08/24 04:34:55;;;;;;;2.43;1.87;;;17.50;1.00;;;;;;5071088;28;20460;-78
2021/08/24 04:37:23;;;;;;;6.50;2.70;;;17.40;1.00;;;;;;5070497;28;20962;-78
2021/08/24 04:39:51;;;;;;;2.37;2.17;;;17.40;1.00;;;;;;5069816;28;20497;-78
2021/08/24 04:42:20;;;;;;;2.93;2.47;;;17.40;1.00;;;;;;5066809;28;20522;-77
2021/08/24 04:44:48;;;;;;;3.10;2.80;;;17.30;1.00;;;;;;5057111;28;20853;-77
2021/08/24 04:47:16;;;;;;;2.13;1.83;;;17.30;1.00;;;;;;5052844;28;20461;-77
2021/08/24 04:49:44;;;;;;;2.50;1.80;;;17.30;1.00;;;;;;5069344;28;20842;-78
2021/08/24 04:52:13;;;;;;;7.83;2.77;;;17.30;1.00;;;;;;5069789;28;20491;-78
2021/08/24 04:54:41;;;;;;;2.67;2.47;;;17.30;1.00;;;;;;5078761;28;20963;-79
2021/08/24 04:57:09;;;;;;;2.60;2.30;;;17.30;1.00;;;;;;5072378;28;20489;-78
2021/08/24 04:59:37;;;;;;;2.63;2.43;;;17.30;1.00;;;;;;5072065;28;20449;-78
2021/08/24 05:02:06;;;;;;;3.03;2.30;;;17.30;1.00;;;;;;5071425;28;20454;-78
2021/08/24 05:04:34;;;;;;;2.40;2.20;;;17.30;1.00;;;;;;5083705;28;20836;-78
2021/08/24 05:07:02;;;;;;;2.67;2.27;;;17.30;1.00;;;;;;5069748;28;20493;-78
2021/08/24 05:09:32;;;;;;;3.07;2.77;;;17.20;1.00;;;;;;5072101;28;21116;-76
2021/08/24 05:12:00;;;;;;;2.30;2.00;;;17.20;1.00;;;;;;5082025;28;20456;-78
2021/08/24 05:14:28;;;;;;;2.60;2.10;;;17.20;1.00;;;;;;5081882;28;20476;-77
2021/08/24 05:16:58;;;;;;;2.50;2.30;;;17.20;1.00;;;;;;5070926;28;20448;-76
2021/08/24 05:19:27;;;;;;;3.33;1.90;;;17.20;1.00;;;;;;5068828;28;20459;-78
2021/08/24 05:21:55;;;;;;;2.67;2.40;;;17.20;1.00;;;;;;5064178;28;20466;-80
2021/08/24 05:24:23;;;;;;;2.47;2.27;;;17.20;1.00;;;;;;5072883;28;20484;-75
2021/08/24 05:26:53;;;;;;;2.70;2.40;;;17.20;1.00;;;;;;5075342;28;20513;-80
2021/08/24 05:29:21;;;;;;;2.47;2.27;;;17.10;1.00;;;;;;5063226;28;20194;-85
2021/08/24 05:31:49;;;;;;;3.40;2.50;;;16.90;99.90;;;;;;5078458;28;20461;-88
2021/08/24 05:34:18;;;;;;;1.93;1.80;;;16.70;99.90;;;;;;5072416;28;20476;-86
2021/08/24 05:36:46;;;;;;;2.27;2.07;;;16.70;99.90;;;;;;5073563;28;20509;-86
2021/08/24 05:39:14;;;;;;;3.00;2.60;;;16.60;1.00;;;;;;5071399;28;20436;-87
2021/08/24 05:41:42;;;;;;;3.80;2.83;;;16.60;1.00;;;;;;5069563;28;20459;-83
2021/08/24 05:44:13;;;;;;;7.30;3.20;;;16.60;1.00;;;;;;5078467;28;20835;-85
2021/08/24 05:46:41;;;;;;;3.00;2.70;;;16.70;1.00;;;;;;5081216;28;20560;-80
2021/08/24 05:49:10;;;;;;;3.60;3.30;;;16.70;1.00;;;;;;5066406;28;20625;-82
2021/08/24 05:51:39;;;;;;;4.17;2.80;;;16.70;1.00;;;;;;5092752;28;20211;-78
2021/08/24 05:54:08;;;;;;;3.37;3.10;;;16.80;1.00;;;;;;5078371;28;20473;-80
2021/08/24 05:56:36;;;;;;;3.23;2.50;;;16.90;99.90;;;;;;5074927;28;20529;-80
2021/08/24 05:59:04;;;;;;;2.70;2.30;;;17.00;99.90;;;;;;5078295;28;20510;-81
2021/08/24 06:01:34;;;;;;;2.63;2.43;;;17.10;99.90;;;;;;5074497;28;20512;-81
2021/08/24 06:04:03;;;;;;;3.70;2.63;;;17.20;99.90;;;;;;5067221;28;20559;-80
2021/08/24 06:06:34;;;;;;;3.40;3.03;;;17.20;99.90;;;;;;5071545;28;20475;-81
2021/08/24 06:09:05;;;;;;;4.00;2.70;;;17.20;99.90;;;;;;5071381;28;20829;-80
2021/08/24 06:11:35;;;;;;;6.97;3.25;;;17.20;99.90;;;;;;5075656;28;20480;-81
2021/08/24 06:14:05;;;;;;;13.33;6.43;;;17.30;99.90;;;;;;5085355;28;20234;-79
2021/08/24 06:16:35;;;;;;;13.03;4.63;;;17.40;99.90;;;;;;5064084;28;20458;-81
2021/08/24 06:19:04;;;;;;;7.23;3.77;;;17.40;99.90;;;;;;5076596;28;20487;-82
2021/08/24 06:21:33;;;;;;;5.67;3.70;;;17.50;99.90;;;;;;5075174;28;20480;-83
2021/08/24 06:24:03;;;;;;;5.00;2.30;;;17.60;99.90;;;;;;5078614;28;20502;-83
2021/08/24 06:26:31;;;;;;;4.20;2.20;;;17.60;99.90;;;;;;5085270;28;21022;-81
2021/08/24 06:29:00;;;;;;;3.50;2.57;;;17.70;99.90;;;;;;5061122;28;20448;-82
2021/08/24 06:31:29;;;;;;;3.33;2.63;;;17.90;99.90;;;;;;5071058;28;20471;-82
2021/08/24 06:34:00;;;;;;;3.10;2.43;;;18.00;99.90;;;;;;5087611;28;20479;-81
2021/08/24 06:36:28;;;;;;;3.27;2.97;;;18.10;99.90;;;;;;5085799;28;20461;-81
2021/08/24 06:38:57;;;;;;;3.42;2.88;;;18.30;99.90;;;;;;5076852;28;20442;-81
2021/08/24 06:41:25;;;;;;;3.80;2.23;;;18.40;99.90;;;;;;5075015;28;20281;-81
2021/08/24 06:43:53;;;;;;;2.87;2.57;;;18.50;95.20;;;;;;5078356;28;20473;-81
2021/08/24 06:46:21;;;;;;;3.60;3.07;;;18.70;37.20;;;;;;5076625;28;20500;-81
2021/08/24 06:48:49;;;;;;;2.93;2.67;;;18.90;19.50;;;;;;5082279;28;20450;-80
2021/08/24 06:51:19;;;;;;;6.80;3.00;;;19.00;1.00;;;;;;5066548;28;20467;-81
2021/08/24 06:53:47;;;;;;;2.77;2.17;;;19.20;1.00;;;;;;5089723;28;20892;-78
2021/08/24 06:56:15;;;;;;;3.03;1.97;;;19.30;1.00;;;;;;5094126;28;20445;-81
2021/08/24 06:58:46;;;;;;;2.23;2.03;;;19.40;1.00;;;;;;5088034;28;20515;-79
2021/08/24 07:01:16;;;;;;;10.10;2.37;;;19.60;1.00;;;;;;5072836;28;21147;-80
2021/08/24 07:03:45;;;;;;;4.37;2.37;;;19.70;1.00;;;;;;5073593;28;20462;-77
2021/08/24 07:06:13;;;;;;;2.90;2.50;;;19.80;1.00;;;;;;5076188;28;20488;-77
2021/08/24 07:08:43;;;;;;;4.07;2.47;;;19.80;1.00;;;;;;5079163;28;20454;-79
2021/08/24 07:11:12;;;;;;;2.20;2.00;;;19.80;1.00;;;;;;5061290;28;20850;-79
2021/08/24 07:13:40;;;;;;;2.57;2.33;;;19.80;1.00;;;;;;5071050;28;20477;-77
2021/08/24 07:16:09;;;;;;;3.50;2.43;;;19.80;1.00;;;;;;5072607;28;20528;-78
2021/08/24 07:18:38;;;;;;;3.83;2.57;;;19.70;1.00;;;;;;5092190;28;20473;-79
2021/08/24 07:21:06;;;;;;;2.37;2.13;;;19.70;1.00;;;;;;5078769;28;20465;-77
2021/08/24 07:23:34;;;;;;;2.53;2.30;;;19.60;1.00;;;;;;5075897;28;20473;-77
2021/08/24 07:26:03;;;;;;;2.70;2.07;;;19.50;1.00;;;;;;5074698;28;20601;-81
2021/08/24 07:28:32;;;;;;;3.53;2.80;;;19.50;1.00;;;;;;5063606;28;20830;-82
2021/08/24 07:31:00;;;;;;;2.87;2.03;;;19.50;1.00;;;;;;5081096;28;20462;-80
2021/08/24 07:33:28;;;;;;;2.87;2.53;;;19.50;1.00;;;;;;5078366;28;20477;-82
2021/08/24 07:35:56;;;;;;;2.30;2.10;;;19.40;1.00;;;;;;5061263;28;20449;-84
2021/08/24 07:38:25;;;;;;;2.57;2.37;;;19.40;1.00;;;;;;5071675;28;20511;-83
2021/08/24 07:40:53;;;;;;;2.47;2.27;;;19.40;1.00;;;;;;5070960;28;20529;-83
2021/08/24 07:43:23;;;;;;;2.20;1.93;;;19.40;1.00;;;;;;5072353;28;21071;-83
2021/08/24 07:45:51;;;;;;;1.93;1.83;;;19.40;1.00;;;;;;5071829;28;20458;-83
2021/08/24 07:48:19;;;;;;;1.83;1.73;;;19.30;1.00;;;;;;5071716;28;20457;-83
2021/08/24 07:50:47;;;;;;;2.13;1.90;;;19.30;1.00;;;;;;5091322;28;20445;-83
2021/08/24 07:53:15;;;;;;;7.67;2.70;;;19.30;1.00;;;;;;5091217;28;20469;-83
2021/08/24 07:55:44;;;;;;;2.70;2.00;;;19.20;1.00;;;;;;5085659;28;20450;-83
2021/08/24 07:58:12;;;;;;;2.43;2.23;;;19.30;1.00;;;;;;5056323;28;20463;-83
2021/08/24 08:00:41;;;;;;;3.37;2.30;;;19.20;1.00;;;;;;5088740;28;20457;-85
2021/08/24 08:03:10;;;;;;;2.10;1.90;;;19.20;1.00;;;;;;5072232;28;20474;-83
2021/08/24 08:05:38;;;;;;;4.53;2.17;;;19.30;1.00;;;;;;5072581;28;20968;-85
2021/08/24 08:08:07;;;;;;;2.70;2.10;;;19.20;1.00;;;;;;5091408;28;20488;-85
2021/08/24 08:10:37;;;;;;;3.00;2.70;;;19.20;1.00;;;;;;5071802;28;20450;-83
2021/08/24 08:13:06;;;;;;;2.63;1.60;;;19.20;1.00;;;;;;5091950;28;20503;-83
2021/08/24 08:15:34;;;;;;;2.47;1.67;;;19.20;1.00;;;;;;5073683;28;20441;-83
2021/08/24 08:18:05;;;;;;;2.37;1.70;;;19.20;1.00;;;;;;5089132;28;20977;-83
2021/08/24 08:20:34;;;;;;;1.70;1.60;;;19.10;1.00;;;;;;5073326;28;20512;-83
2021/08/24 08:23:05;;;;;;;3.30;1.80;;;19.10;1.00;;;;;;5053340;28;20489;-83
2021/08/24 08:25:34;;;;;;;2.57;2.03;;;19.20;1.00;;;;;;5071518;28;20507;-83
2021/08/24 08:28:02;;;;;;;2.07;1.87;;;19.20;1.00;;;;;;5069812;28;20470;-83
2021/08/24 08:30:30;;;;;;;4.60;1.90;;;19.30;1.00;;;;;;5069633;28;20510;-83
2021/08/24 08:32:59;;;;;;;2.70;1.77;;;19.30;1.00;;;;;;5091115;28;20452;-83
2021/08/24 08:35:30;;;;;;;2.27;1.90;;;19.30;1.00;;;;;;5090046;28;20969;-84
2021/08/24 08:37:58;;;;;;;2.20;2.00;;;19.30;1.00;;;;;;5071213;28;20473;-83
2021/08/24 08:40:36;;;;;;;4.93;1.97;;;19.30;1.00;;;;;;5079520;28;20499;-83
2021/08/24 08:43:33;;;;;;;1.87;1.77;;;19.30;1.00;;;;;;5070858;28;20581;-83
2021/08/24 08:46:08;;;;;;;2.70;2.33;;;19.30;1.00;;;;;;5071197;28;20447;-83
2021/08/24 08:48:45;;;;;;;4.30;1.70;;;19.30;1.00;;;;;;5071127;28;20477;-83
2021/08/24 08:51:32;;;;;;;2.33;2.13;;;19.30;1.00;;;;;;5068899;28;20496;-83
2021/08/24 08:54:10;;;;;;;2.37;1.83;;;19.30;1.00;;;;;;5084261;28;20473;-83
2021/08/24 08:56:45;;;;;;;2.00;1.87;;;19.30;1.00;;;;;;5090612;28;20453;-83
2021/08/24 08:59:16;;;;;;;2.17;1.70;;;19.40;1.00;;;;;;5074263;28;20438;-83
2021/08/24 09:01:50;;;;;;;2.80;1.60;;;19.40;1.00;;;;;;5070781;28;20446;-82
2021/08/24 09:04:26;;;;;;;2.97;1.73;;;19.40;1.00;;;;;;5068772;28;20474;-83
2021/08/24 09:06:58;;;;;;;2.40;1.80;;;19.40;1.00;;;;;;5071567;28;20446;-82
2021/08/24 09:09:28;;;;;;;3.30;1.80;;;19.50;1.00;;;;;;5086501;28;20438;-83
2021/08/24 09:11:56;;;;;;;9.90;2.50;;;19.50;1.00;;;;;;5090726;28;20436;-83
2021/08/24 09:14:29;;;;;;;2.97;1.93;;;19.50;1.00;;;;;;5090617;28;20462;-84
2021/08/24 09:17:02;;;;;;;2.60;2.03;;;19.50;1.00;;;;;;5070384;28;20449;-83
2021/08/24 09:19:41;;;;;;;2.37;1.80;;;19.50;1.00;;;;;;5071553;28;20957;-83
2021/08/24 09:22:15;;;;;;;4.93;4.00;;;19.50;1.00;;;;;;5067969;28;20861;-83
2021/08/24 09:24:45;;;;;;;3.27;2.00;;;19.50;1.00;;;;;;5090282;28;20968;-83
2021/08/24 09:27:22;;;;;;;2.60;2.00;;;19.50;1.00;;;;;;5090859;28;20465;-83
2021/08/24 09:29:51;;;;;;;3.67;3.03;;;19.50;1.00;;;;;;5076430;28;20508;-83
2021/08/24 09:32:24;;;;;;;3.70;2.30;;;19.50;1.00;;;;;;5066755;28;20457;-82
2021/08/24 09:34:59;;;;;;;2.87;2.17;;;19.40;1.00;;;;;;5061994;28;20474;-83
2021/08/24 09:37:33;;;;;;;4.73;1.80;;;19.40;1.00;;;;;;5076441;28;20454;-82
2021/08/24 09:40:04;;;;;;;1.93;1.83;;;19.40;1.00;;;;;;5055216;28;20445;-82
2021/08/24 09:42:40;;;;;;;2.77;1.90;;;19.40;1.00;;;;;;5091883;28;20430;-79
2021/08/24 09:45:25;;;;;;;2.53;2.33;;;19.40;1.00;;;;;;5082981;28;21014;-82
2021/08/24 09:48:07;;;;;;;3.10;2.53;;;19.40;1.00;;;;;;5067351;28;20470;-82
2021/08/24 09:50:38;;;;;;;3.00;2.47;;;19.30;1.00;;;;;;5070840;28;20505;-82
2021/08/24 09:53:14;;;;;;;2.93;2.63;;;19.40;1.00;;;;;;5079374;28;20477;-83
2021/08/24 09:55:48;;;;;;;2.50;2.30;;;19.50;1.00;;;;;;5080030;28;20445;-81
2021/08/24 09:58:29;;;;;;;2.30;2.10;;;19.60;1.00;;;;;;5086919;28;20777;-81
2021/08/24 10:01:02;;;;;;;3.77;2.87;;;19.60;1.00;;;;;;5088118;28;20527;-82
2021/08/24 10:03:35;;;;;;;2.97;2.77;;;19.60;1.00;;;;;;5086997;28;20473;-80
2021/08/24 10:06:06;;;;;;;4.70;2.27;;;19.60;1.00;;;;;;5075464;28;20438;-80
2021/08/24 10:08:37;;;;;;;2.97;2.40;;;19.60;1.00;;;;;;5079809;28;20473;-83
2021/08/24 10:11:13;;;;;;;2.27;2.13;;;19.60;1.00;;;;;;5071737;28;20457;-81
2021/08/24 10:13:43;;;;;;;3.10;2.80;;;19.60;1.00;;;;;;5062085;28;20481;-82
2021/08/24 10:16:21;;;;;;;2.93;2.20;;;19.60;1.00;;;;;;5081456;28;20460;-83
2021/08/24 10:18:53;;;;;;;2.40;2.10;;;19.60;1.00;;;;;;5078148;28;20453;-84
2021/08/24 10:21:33;;;;;;;2.90;1.90;;;19.60;1.00;;;;;;5086524;28;20576;-84
2021/08/24 10:24:03;;;;;;;2.83;2.27;;;19.60;1.00;;;;;;5086653;28;20558;-82
2021/08/24 10:26:35;;;;;;;1.87;1.77;;;19.60;1.00;;;;;;5088088;28;20445;-82
2021/08/24 10:29:06;;;;;;;2.80;2.60;;;19.70;1.00;;;;;;5084406;28;21012;-84
2021/08/24 10:31:38;;;;;;;2.53;2.33;;;19.70;1.00;;;;;;5062781;28;20437;-83
2021/08/24 10:34:10;;;;;;;2.80;2.57;;;19.70;1.00;;;;;;5075108;28;20490;-83
2021/08/24 10:36:41;;;;;;;2.17;1.97;;;19.70;1.00;;;;;;5079020;28;20449;-79
2021/08/24 10:39:26;;;;;;;4.90;2.63;;;19.70;1.00;;;;;;5065869;28;20441;-84
2021/08/24 10:42:08;;;;;;;3.50;2.40;;;19.70;1.00;;;;;;5081804;28;20461;-82
2021/08/24 10:44:44;;;;;;;2.87;2.67;;;19.70;1.00;;;;;;5085152;28;20470;-80
2021/08/24 10:47:26;;;;;;;2.23;2.03;;;19.80;1.00;;;;;;5093555;28;20449;-83
2021/08/24 10:49:55;;;;;;;2.00;1.90;;;19.80;1.00;;;;;;5093974;28;20514;-83
2021/08/24 10:52:41;;;;;;;2.30;2.10;;;19.80;1.00;;;;;;5065186;28;20498;-83
2021/08/24 10:55:14;;;;;;;4.50;2.50;;;19.80;1.00;;;;;;5058863;28;20483;-84
2021/08/24 10:57:54;;;;;;;3.20;2.10;;;19.80;1.00;;;;;;5073584;28;20447;-85
2021/08/24 11:00:45;;;;;;;2.77;1.90;;;19.80;1.00;;;;;;5055525;28;20443;-85
2021/08/24 11:03:36;;;;;;;3.70;2.27;;;19.80;1.00;;;;;;5073443;28;20944;-84
2021/08/24 11:06:14;;;;;;;2.63;2.07;;;19.70;1.00;;;;;;5073310;28;20449;-84
2021/08/24 11:08:52;;;;;;;2.57;2.37;;;19.70;1.00;;;;;;5075993;28;20470;-86
2021/08/24 11:11:27;;;;;;;3.27;2.10;;;19.70;1.00;;;;;;5069954;28;20446;-84
2021/08/24 11:14:02;;;;;;;1.93;1.73;;;19.70;1.00;;;;;;5073826;28;20481;-85
2021/08/24 11:16:46;;;;;;;3.97;2.10;;;19.70;1.00;;;;;;5086399;28;20929;-82
2021/08/24 11:19:25;;;;;;;3.63;2.10;;;19.70;1.00;;;;;;5063444;28;20456;-87
2021/08/24 11:22:00;;;;;;;2.10;1.90;;;19.70;1.00;;;;;;5079044;28;20858;-82
2021/08/24 11:24:39;;;;;;;2.93;2.67;;;19.70;1.00;;;;;;5082270;28;20893;-82
2021/08/24 11:27:17;;;;;;;2.47;2.13;;;19.70;1.00;;;;;;5083651;28;20446;-80
2021/08/24 11:29:50;;;;;;;4.37;2.60;;;19.80;1.00;;;;;;5081262;28;20537;-82
2021/08/24 11:32:24;;;;;;;2.83;2.63;;;19.80;1.00;;;;;;5080930;28;20455;-81
2021/08/24 11:34:58;;;;;;;2.37;2.17;;;19.80;1.00;;;;;;5084838;28;20492;-82
2021/08/24 11:37:30;;;;;;;2.47;2.27;;;19.80;1.00;;;;;;5084057;28;20450;-82
2021/08/24 11:40:01;;;;;;;2.43;2.23;;;19.70;1.00;;;;;;5077509;28;20453;-85
2021/08/24 11:42:38;;;;;;;2.77;2.57;;;19.70;1.00;;;;;;5084283;28;20518;-81
2021/08/24 11:45:10;;;;;;;4.70;2.90;;;19.70;1.00;;;;;;5069880;28;20487;-83
2021/08/24 11:47:42;;;;;;;2.00;1.90;;;19.80;1.00;;;;;;5084430;28;20438;-83
2021/08/24 11:50:14;;;;;;;2.40;2.20;;;19.70;1.00;;;;;;5073491;28;20470;-83
2021/08/24 11:52:48;;;;;;;3.17;1.97;;;19.80;1.00;;;;;;5076621;28;20450;-83
2021/08/24 11:55:23;;;;;;;2.60;2.40;;;19.80;1.00;;;;;;5080466;28;20484;-82
2021/08/24 11:58:01;;;;;;;2.00;1.80;;;19.90;1.00;;;;;;5081610;28;20531;-82
2021/08/24 12:00:30;;;;;;;2.00;1.80;;;19.80;1.00;;;;;;5063636;28;20816;-80
2021/08/24 12:03:00;;;;;;;2.33;2.13;;;19.90;1.00;;;;;;5071415;28;21020;-83
2021/08/24 12:05:35;;;;;;;2.70;1.70;;;19.90;1.00;;;;;;5081703;28;20446;-80
2021/08/24 12:08:07;;;;;;;2.20;2.10;;;20.00;1.00;;;;;;5057948;28;20503;-83
2021/08/24 12:10:39;;;;;;;2.33;1.90;;;20.10;1.00;;;;;;5064523;28;21031;-82
2021/08/24 12:13:12;;;;;;;2.27;2.07;;;20.10;1.00;;;;;;5080180;28;21023;-81
2021/08/24 12:15:43;;;;;;;1.77;1.60;;;20.10;1.00;;;;;;5079385;28;20454;-83
2021/08/24 12:18:25;;;;;;;2.13;1.93;;;20.10;1.00;;;;;;5083982;28;20877;-83
2021/08/24 12:20:55;;;;;;;2.20;2.10;;;20.10;1.00;;;;;;5081898;28;20441;-82
2021/08/24 12:23:36;;;;;;;2.43;2.23;;;20.00;1.00;;;;;;5061569;28;20490;-83
2021/08/24 12:26:32;;;;;;;2.50;2.23;;;20.00;1.00;;;;;;5062224;28;20461;-82
2021/08/24 12:29:08;;;;;;;2.30;1.60;;;20.00;1.00;;;;;;5035598;28;20516;-82
2021/08/24 12:31:45;;;;;;;2.10;2.00;;;20.10;1.00;;;;;;5082844;28;20433;-81
2021/08/24 12:34:50;;;;;;;3.63;2.20;;;20.10;1.00;;;;;;5080013;28;20470;-80
2021/08/24 12:37:49;;;;;;;2.30;2.10;;;20.20;1.00;;;;;;5082693;28;20476;-80
2021/08/24 12:40:53;;;;;;;2.20;2.00;;;20.20;1.00;;;;;;5076437;28;20426;-80
2021/08/24 12:43:47;;;;;;;3.53;2.00;;;20.20;1.00;;;;;;5063392;28;20454;-81
2021/08/24 12:46:31;;;;;;;2.23;2.03;;;20.20;1.00;;;;;;5061187;28;20438;-84
2021/08/24 12:49:39;;;;;;;2.30;2.10;;;20.20;1.00;;;;;;5079808;28;20461;-80
2021/08/24 12:52:30;;;;;;;2.10;1.73;;;20.30;1.00;;;;;;5079531;28;20446;-81
2021/08/24 12:55:19;;;;;;;3.07;2.63;;;20.30;1.00;;;;;;5070359;28;21018;-80
2021/08/24 12:57:49;;;;;;;2.27;2.07;;;20.30;1.00;;;;;;5048889;28;20544;-80
2021/08/24 13:00:25;;;;;;;2.80;2.60;;;20.30;1.00;;;;;;5069269;28;20423;-80
2021/08/24 13:02:59;;;;;;;2.40;2.20;;;20.30;1.00;;;;;;5052361;28;20446;-80
2021/08/24 13:05:31;;;;;;;2.00;1.90;;;20.30;1.00;;;;;;5075309;28;20450;-81
2021/08/24 13:08:11;;;;;;;2.23;2.10;;;20.30;1.00;;;;;;5064116;28;20466;-79
2021/08/24 13:10:41;;;;;;;3.70;2.07;;;20.30;1.00;;;;;;5074936;28;20470;-80
2021/08/24 13:13:43;;;;;;;2.23;2.03;;;20.30;1.00;;;;;;5070224;28;20480;-79
2021/08/24 13:16:14;;;;;;;4.30;3.73;;;20.20;1.00;;;;;;5068780;28;20445;-78
2021/08/24 13:18:48;;;;;;;2.83;2.57;;;20.30;1.00;;;;;;5067251;28;20445;-79
2021/08/24 13:21:46;;;;;;;2.03;1.80;;;20.30;1.00;;;;;;5077534;28;20459;-81